Time;durP1;ratioP1;P1;durP2;ratioP2;P2;SDS_P1;SDS_P2;PMS_P1;PMS_P2;Temp;Humidity;BMP_temperature;BMP_pressure;BME280_temperature;BME280_humidity;BME280_pressure;Samples;Min_cycle;Max_cycle;Signal;HPM_P1;HPM_P2
2022/11/23 00:01:24;;;;;;;11.95;4.63;;;9.10;91.90;;;;;;5038850;28;20035;-81
2022/11/23 00:03:53;;;;;;;15.30;4.95;;;9.10;91.90;;;;;;5050248;28;20037;-79
2022/11/23 00:06:20;;;;;;;15.15;5.18;;;9.10;92.00;;;;;;5051621;28;20128;-77
2022/11/23 00:08:46;;;;;;;11.82;4.30;;;9.10;92.00;;;;;;5046138;28;20469;-78
2022/11/23 00:11:12;;;;;;;13.57;5.47;;;9.10;92.10;;;;;;5051003;28;20076;-78
2022/11/23 00:13:39;;;;;;;14.60;5.32;;;9.00;92.10;;;;;;5046133;28;20072;-78
2022/11/23 00:16:11;;;;;;;11.07;4.88;;;9.10;92.10;;;;;;5060914;28;20037;-78
2022/11/23 00:18:37;;;;;;;12.93;5.00;;;9.10;92.00;;;;;;5054018;28;20045;-78
2022/11/23 00:21:14;;;;;;;10.57;4.72;;;9.00;92.00;;;;;;5050244;28;20477;-78
2022/11/23 00:23:39;;;;;;;13.38;5.28;;;9.00;92.10;;;;;;5048790;28;20897;-78
2022/11/23 00:26:05;;;;;;;12.10;5.55;;;8.90;92.20;;;;;;5053619;28;20068;-78
2022/11/23 00:28:31;;;;;;;12.02;5.05;;;8.90;92.10;;;;;;5061928;28;20392;-77
2022/11/23 00:30:57;;;;;;;13.63;5.40;;;8.90;92.20;;;;;;5045842;28;20040;-79
2022/11/23 00:33:23;;;;;;;14.65;5.80;;;9.00;92.30;;;;;;5048860;28;20041;-78
2022/11/23 00:36:09;;;;;;;15.95;5.97;;;9.00;92.30;;;;;;5054317;28;20028;-79
2022/11/23 00:38:36;;;;;;;20.45;5.65;;;8.90;92.30;;;;;;5048083;28;20112;-78
2022/11/23 00:41:04;;;;;;;17.70;5.40;;;8.90;92.20;;;;;;5051928;28;20412;-78
2022/11/23 00:43:31;;;;;;;21.63;5.82;;;8.90;92.20;;;;;;5047152;28;20032;-78
2022/11/23 00:46:06;;;;;;;16.42;5.40;;;9.00;92.20;;;;;;5056351;28;20024;-78
2022/11/23 00:48:32;;;;;;;15.68;5.22;;;8.90;92.10;;;;;;5048123;28;20048;-77
2022/11/23 00:51:03;;;;;;;14.32;5.22;;;8.90;92.10;;;;;;5064697;28;20465;-78
2022/11/23 00:53:29;;;;;;;18.13;5.80;;;8.90;92.00;;;;;;5060687;28;20053;-79
2022/11/23 00:55:57;;;;;;;16.50;5.57;;;8.90;92.00;;;;;;5051396;28;20037;-79
2022/11/23 00:58:23;;;;;;;17.60;5.32;;;8.90;92.00;;;;;;5048190;28;20075;-79
2022/11/23 01:00:49;;;;;;;16.70;5.10;;;8.90;92.00;;;;;;5046538;28;20567;-78
2022/11/23 01:03:15;;;;;;;18.85;5.20;;;8.90;91.90;;;;;;5053236;28;20056;-78
2022/11/23 01:05:41;;;;;;;20.02;5.53;;;8.90;91.90;;;;;;5057730;28;20049;-79
2022/11/23 01:08:08;;;;;;;16.55;4.97;;;9.00;91.70;;;;;;5042362;28;20079;-78
2022/11/23 01:10:33;;;;;;;21.45;4.68;;;9.00;91.60;;;;;;5057687;28;20052;-79
2022/11/23 01:12:59;;;;;;;19.77;4.80;;;9.00;91.60;;;;;;5050491;28;20021;-79
2022/11/23 01:15:26;;;;;;;18.60;4.65;;;8.90;91.40;;;;;;5049781;28;20041;-78
2022/11/23 01:17:51;;;;;;;17.15;4.80;;;9.10;91.30;;;;;;5049859;28;20508;-78
2022/11/23 01:20:17;;;;;;;21.02;4.88;;;9.00;91.30;;;;;;5046139;28;20092;-80
2022/11/23 01:22:43;;;;;;;17.88;4.55;;;9.00;91.20;;;;;;5056856;28;20116;-78
2022/11/23 01:25:08;;;;;;;18.10;4.22;;;9.00;91.10;;;;;;5048333;28;20094;-79
2022/11/23 01:27:34;;;;;;;16.38;4.20;;;9.00;90.90;;;;;;5049209;28;20344;-79
2022/11/23 01:30:00;;;;;;;17.13;4.05;;;9.10;90.80;;;;;;5059379;28;20081;-79
2022/11/23 01:32:25;;;;;;;18.02;4.72;;;9.10;90.80;;;;;;5049873;28;20475;-79
2022/11/23 01:34:51;;;;;;;11.30;3.83;;;9.00;90.70;;;;;;5053653;28;20327;-78
2022/11/23 01:37:17;;;;;;;12.23;4.35;;;9.00;90.60;;;;;;5053059;28;20051;-79
2022/11/23 01:39:42;;;;;;;17.38;5.25;;;9.00;90.60;;;;;;5049223;28;20448;-78
2022/11/23 01:42:08;;;;;;;16.10;4.53;;;9.00;90.60;;;;;;5049798;28;20037;-78
2022/11/23 01:44:35;;;;;;;13.85;4.05;;;9.00;90.60;;;;;;5051351;28;20033;-78
2022/11/23 01:47:06;;;;;;;18.10;4.05;;;9.00;90.50;;;;;;5048730;28;20488;-78
2022/11/23 01:49:52;;;;;;;13.40;4.05;;;9.00;90.40;;;;;;5048149;28;20044;-79
2022/11/23 01:52:24;;;;;;;23.63;4.75;;;8.90;90.10;;;;;;5047732;28;20408;-78
2022/11/23 01:54:55;;;;;;;17.33;4.53;;;8.80;90.00;;;;;;5066087;28;20068;-78
2022/11/23 01:57:30;;;;;;;18.38;4.18;;;8.80;90.00;;;;;;5045217;28;20070;-78
2022/11/23 01:59:56;;;;;;;18.88;4.45;;;8.80;89.80;;;;;;5048643;28;20133;-78
2022/11/23 02:02:22;;;;;;;18.23;4.55;;;8.70;89.70;;;;;;5043448;28;20461;-80
2022/11/23 02:04:51;;;;;;;15.43;3.80;;;8.70;89.70;;;;;;5052002;28;20033;-78
2022/11/23 02:07:18;;;;;;;18.30;4.28;;;8.70;89.70;;;;;;5050322;28;20060;-80
2022/11/23 02:09:46;;;;;;;15.40;3.65;;;8.60;89.60;;;;;;5049689;28;20433;-79
2022/11/23 02:12:12;;;;;;;21.27;4.22;;;8.60;89.60;;;;;;5043944;28;20500;-78
2022/11/23 02:14:40;;;;;;;17.52;4.00;;;8.60;89.60;;;;;;5047643;28;20039;-78
2022/11/23 02:17:06;;;;;;;19.67;3.63;;;8.70;89.30;;;;;;5049852;28;20052;-78
2022/11/23 02:20:03;;;;;;;18.05;4.07;;;8.60;89.30;;;;;;5051056;28;20476;-79
2022/11/23 02:22:49;;;;;;;16.40;4.15;;;8.60;89.10;;;;;;5044936;28;20056;-78
2022/11/23 02:25:35;;;;;;;16.35;3.80;;;8.60;89.10;;;;;;5043074;28;20128;-79
2022/11/23 02:28:01;;;;;;;15.02;3.35;;;8.60;89.10;;;;;;5049010;28;20049;-78
2022/11/23 02:30:30;;;;;;;13.68;3.47;;;8.60;89.10;;;;;;5046146;28;20048;-78
2022/11/23 02:32:56;;;;;;;14.05;4.00;;;8.60;89.10;;;;;;5054028;28;20067;-78
2022/11/23 02:35:22;;;;;;;15.30;4.50;;;8.60;88.90;;;;;;5052211;28;20099;-80
2022/11/23 02:37:48;;;;;;;17.45;3.40;;;8.50;88.70;;;;;;5052866;28;20071;-80
2022/11/23 02:40:27;;;;;;;13.60;3.88;;;8.50;88.70;;;;;;5052701;28;20162;-80
2022/11/23 02:42:53;;;;;;;11.60;3.50;;;8.50;88.60;;;;;;5065643;28;20064;-80
2022/11/23 02:45:39;;;;;;;18.58;4.55;;;8.50;88.60;;;;;;5047238;28;20124;-78
2022/11/23 02:48:05;;;;;;;15.98;3.70;;;8.50;88.40;;;;;;5061610;28;20033;-78
2022/11/23 02:50:31;;;;;;;16.98;3.22;;;8.50;88.20;;;;;;5050974;28;20063;-79
2022/11/23 02:52:57;;;;;;;21.75;4.15;;;8.50;88.30;;;;;;5050258;28;20033;-78
2022/11/23 02:55:23;;;;;;;16.63;3.65;;;8.50;88.30;;;;;;5048583;28;20075;-78
2022/11/23 02:57:49;;;;;;;16.50;4.40;;;8.50;88.40;;;;;;5053940;28;20049;-77
2022/11/23 03:00:15;;;;;;;14.90;3.55;;;8.40;88.20;;;;;;5046641;28;20048;-77
2022/11/23 03:02:41;;;;;;;16.55;3.45;;;8.40;88.10;;;;;;5046722;28;20037;-78
2022/11/23 03:05:07;;;;;;;10.60;2.97;;;8.30;88.00;;;;;;5040515;28;20032;-80
2022/11/23 03:07:32;;;;;;;17.40;4.30;;;8.30;87.90;;;;;;5043870;28;20068;-78
2022/11/23 03:09:58;;;;;;;16.85;3.47;;;8.20;87.90;;;;;;5046455;28;20095;-77
2022/11/23 03:12:24;;;;;;;14.25;3.05;;;8.20;87.90;;;;;;5046139;28;20047;-78
2022/11/23 03:14:49;;;;;;;15.23;3.40;;;8.10;88.00;;;;;;5057414;28;20106;-78
2022/11/23 03:17:15;;;;;;;14.55;4.00;;;8.10;88.10;;;;;;5045202;28;20131;-78
2022/11/23 03:19:41;;;;;;;17.52;3.63;;;8.10;88.10;;;;;;5051890;28;20124;-78
2022/11/23 03:22:07;;;;;;;16.00;3.90;;;8.10;88.20;;;;;;5047045;28;20033;-78
2022/11/23 03:24:32;;;;;;;15.50;3.83;;;8.10;88.30;;;;;;5047552;28;20078;-77
2022/11/23 03:26:58;;;;;;;13.68;4.03;;;8.10;88.10;;;;;;5047103;28;20086;-77
2022/11/23 03:29:25;;;;;;;13.65;3.00;;;8.10;88.10;;;;;;5048455;28;20560;-79
2022/11/23 03:31:52;;;;;;;13.30;3.60;;;8.10;88.20;;;;;;5043516;28;20048;-76
2022/11/23 03:34:17;;;;;;;16.67;4.25;;;8.10;88.10;;;;;;5045786;28;20040;-78
2022/11/23 03:36:43;;;;;;;12.80;3.97;;;8.10;88.00;;;;;;5055462;28;20036;-77
2022/11/23 03:39:10;;;;;;;18.30;4.20;;;8.10;88.00;;;;;;5045023;28;20041;-77
2022/11/23 03:41:35;;;;;;;20.13;4.32;;;8.10;87.90;;;;;;5054508;28;20048;-77
2022/11/23 03:44:02;;;;;;;19.95;4.32;;;8.10;87.90;;;;;;5047358;28;20427;-78
2022/11/23 03:46:27;;;;;;;16.65;4.07;;;8.10;87.90;;;;;;5054077;28;20033;-77
2022/11/23 03:48:53;;;;;;;13.30;3.72;;;8.10;87.60;;;;;;5049633;28;20051;-78
2022/11/23 03:51:18;;;;;;;15.18;3.58;;;8.10;87.50;;;;;;5051074;28;20037;-77
2022/11/23 03:53:44;;;;;;;16.05;3.85;;;8.10;87.30;;;;;;5051920;28;20037;-77
2022/11/23 03:56:10;;;;;;;14.57;3.45;;;8.10;87.20;;;;;;5048574;28;20033;-77
2022/11/23 03:58:36;;;;;;;17.55;3.83;;;8.10;87.10;;;;;;5048406;28;20056;-78
2022/11/23 04:01:01;;;;;;;15.52;3.45;;;8.10;87.00;;;;;;5044759;28;20033;-78
2022/11/23 04:03:27;;;;;;;20.20;4.35;;;8.10;87.10;;;;;;5056245;28;20029;-78
2022/11/23 04:05:52;;;;;;;16.95;3.83;;;8.10;87.00;;;;;;5045291;28;20461;-80
2022/11/23 04:08:18;;;;;;;17.88;4.70;;;8.20;86.90;;;;;;5041593;28;20033;-79
2022/11/23 04:10:44;;;;;;;16.10;3.58;;;8.20;86.70;;;;;;5051926;28;20076;-80
2022/11/23 04:13:09;;;;;;;20.67;3.92;;;8.20;86.60;;;;;;5044907;28;20397;-79
2022/11/23 04:15:35;;;;;;;21.00;4.65;;;8.20;86.70;;;;;;5045667;28;20030;-79
2022/11/23 04:18:01;;;;;;;15.55;4.13;;;8.20;86.80;;;;;;5050286;28;20036;-78
2022/11/23 04:20:26;;;;;;;19.27;3.55;;;8.10;86.90;;;;;;5048614;28;20036;-78
2022/11/23 04:22:52;;;;;;;17.60;4.13;;;8.20;86.90;;;;;;5047311;28;20056;-78
2022/11/23 04:25:18;;;;;;;17.30;4.13;;;8.10;87.00;;;;;;5048594;28;20499;-79
2022/11/23 04:27:44;;;;;;;13.65;3.90;;;8.10;87.00;;;;;;5057172;28;20045;-79
2022/11/23 04:30:10;;;;;;;18.83;4.32;;;8.10;87.00;;;;;;5053934;28;20052;-78
2022/11/23 04:32:36;;;;;;;20.80;3.97;;;8.20;87.10;;;;;;5065134;28;20549;-79
2022/11/23 04:35:02;;;;;;;16.33;4.55;;;8.10;87.40;;;;;;5046582;28;20120;-79
2022/11/23 04:37:27;;;;;;;20.77;4.28;;;8.10;87.70;;;;;;5051044;28;20060;-79
2022/11/23 04:39:53;;;;;;;19.05;3.92;;;8.10;87.70;;;;;;5064527;28;20377;-79
2022/11/23 04:42:19;;;;;;;15.25;3.50;;;8.10;87.80;;;;;;5048626;28;20029;-81
2022/11/23 04:44:45;;;;;;;17.83;3.92;;;8.10;87.90;;;;;;5051813;28;20448;-79
2022/11/23 04:47:11;;;;;;;16.77;3.67;;;8.10;87.90;;;;;;5049094;28;20461;-79
2022/11/23 04:49:37;;;;;;;18.35;3.50;;;8.10;87.90;;;;;;5057087;28;20025;-79
2022/11/23 04:52:03;;;;;;;15.15;3.58;;;8.20;88.00;;;;;;5051453;28;20158;-78
2022/11/23 04:54:28;;;;;;;14.38;3.58;;;8.10;87.90;;;;;;5046723;28;20484;-78
2022/11/23 04:56:55;;;;;;;19.98;4.47;;;8.10;87.90;;;;;;5052653;28;20051;-79
2022/11/23 04:59:21;;;;;;;14.25;3.53;;;8.10;87.80;;;;;;5050457;28;20043;-79
2022/11/23 05:01:51;;;;;;;17.00;4.03;;;8.10;87.80;;;;;;5044648;28;20399;-79
2022/11/23 05:04:18;;;;;;;16.95;4.15;;;8.10;87.70;;;;;;5058990;28;20055;-79
2022/11/23 05:06:44;;;;;;;19.92;3.92;;;8.10;87.40;;;;;;5052577;28;20040;-79
2022/11/23 05:09:09;;;;;;;19.23;5.55;;;8.10;87.30;;;;;;5052925;28;20035;-78
2022/11/23 05:11:35;;;;;;;17.58;4.53;;;8.10;87.10;;;;;;5052146;28;20064;-79
2022/11/23 05:14:01;;;;;;;21.00;4.47;;;8.10;87.00;;;;;;5052837;28;20039;-78
2022/11/23 05:16:26;;;;;;;19.95;4.00;;;8.10;86.90;;;;;;5044691;28;20029;-79
2022/11/23 05:18:52;;;;;;;16.95;3.65;;;8.10;86.80;;;;;;5049268;28;20078;-79
2022/11/23 05:21:18;;;;;;;15.80;4.50;;;8.10;86.80;;;;;;5053074;28;20131;-78
2022/11/23 05:23:43;;;;;;;18.58;4.38;;;8.00;86.40;;;;;;5049238;28;20061;-79
2022/11/23 05:26:09;;;;;;;20.58;4.05;;;8.00;86.30;;;;;;5047786;28;20035;-79
2022/11/23 05:28:36;;;;;;;27.90;5.00;;;7.90;86.30;;;;;;5041997;28;20098;-79
2022/11/23 05:31:02;;;;;;;16.73;4.53;;;7.80;86.30;;;;;;5059168;28;20052;-78
2022/11/23 05:33:28;;;;;;;15.77;3.63;;;7.80;86.30;;;;;;5046366;28;20069;-80
2022/11/23 05:35:53;;;;;;;21.63;4.68;;;7.80;86.30;;;;;;5047715;28;20114;-80
2022/11/23 05:38:19;;;;;;;20.73;4.40;;;7.70;86.40;;;;;;5073036;28;20029;-81
2022/11/23 05:40:45;;;;;;;16.08;3.50;;;7.60;86.30;;;;;;5073229;28;20045;-81
2022/11/23 05:43:11;;;;;;;18.08;5.10;;;7.60;86.20;;;;;;5063844;28;20415;-79
2022/11/23 05:45:37;;;;;;;17.35;3.92;;;7.50;86.30;;;;;;5047405;28;20115;-80
2022/11/23 05:48:03;;;;;;;18.15;4.30;;;7.40;86.30;;;;;;5052672;28;20036;-79
2022/11/23 05:50:29;;;;;;;18.67;3.85;;;7.40;86.40;;;;;;5048572;28;20500;-79
2022/11/23 05:52:56;;;;;;;16.88;5.15;;;7.30;86.50;;;;;;5047647;28;20045;-79
2022/11/23 05:55:22;;;;;;;14.32;3.97;;;7.30;86.60;;;;;;5045267;28;20045;-80
2022/11/23 05:57:48;;;;;;;14.88;3.90;;;7.20;86.70;;;;;;5046278;28;20420;-79
2022/11/23 06:00:14;;;;;;;16.85;4.88;;;7.10;86.80;;;;;;5046034;28;20053;-78
2022/11/23 06:02:40;;;;;;;21.52;4.68;;;7.10;87.10;;;;;;5051456;28;20121;-79
2022/11/23 06:05:06;;;;;;;20.58;4.93;;;7.00;87.30;;;;;;5049350;28;20147;-80
2022/11/23 06:07:32;;;;;;;16.15;4.05;;;7.00;87.40;;;;;;5050528;28;20033;-79
2022/11/23 06:09:58;;;;;;;23.08;4.93;;;7.00;87.50;;;;;;5050863;28;20128;-81
2022/11/23 06:12:24;;;;;;;19.85;5.03;;;6.90;87.70;;;;;;5050091;28;20156;-80
2022/11/23 06:14:50;;;;;;;20.30;5.38;;;6.80;87.80;;;;;;5052324;28;20459;-79
2022/11/23 06:17:15;;;;;;;24.02;6.05;;;6.80;87.90;;;;;;5043766;28;20040;-79
2022/11/23 06:19:41;;;;;;;25.25;5.72;;;6.80;88.00;;;;;;5048203;28;20095;-79
2022/11/23 06:22:07;;;;;;;24.75;6.28;;;6.80;88.10;;;;;;5048488;28;20387;-79
2022/11/23 06:24:33;;;;;;;22.65;7.57;;;6.70;88.40;;;;;;5049391;28;20025;-79
2022/11/23 06:26:58;;;;;;;19.25;6.20;;;6.70;88.40;;;;;;5051346;28;20477;-79
2022/11/23 06:29:24;;;;;;;21.85;6.45;;;6.60;88.50;;;;;;5048702;28;20087;-79
2022/11/23 06:31:49;;;;;;;21.95;5.63;;;6.60;88.60;;;;;;5048911;28;20429;-80
2022/11/23 06:34:15;;;;;;;25.40;5.65;;;6.60;88.60;;;;;;5044322;28;20037;-79
2022/11/23 06:36:42;;;;;;;30.58;8.00;;;6.60;88.70;;;;;;5046097;28;20479;-79
2022/11/23 06:39:08;;;;;;;17.17;5.57;;;6.60;88.80;;;;;;5046404;28;20044;-81
2022/11/23 06:41:34;;;;;;;22.55;6.95;;;6.60;88.80;;;;;;5045544;28;20082;-81
2022/11/23 06:43:59;;;;;;;26.27;6.20;;;6.60;88.90;;;;;;5050049;28;20029;-82
2022/11/23 06:46:25;;;;;;;21.95;7.03;;;6.60;88.90;;;;;;5047614;28;20060;-82
2022/11/23 06:48:51;;;;;;;26.45;6.05;;;6.50;88.90;;;;;;5066508;28;20036;-77
2022/11/23 06:51:16;;;;;;;22.38;6.30;;;6.60;89.10;;;;;;5076201;28;20495;-81
2022/11/23 06:53:42;;;;;;;21.05;6.82;;;6.50;89.10;;;;;;5055995;28;20571;-82
2022/11/23 06:56:08;;;;;;;26.45;7.13;;;6.50;89.20;;;;;;5051959;28;20126;-81
2022/11/23 06:58:34;;;;;;;21.63;6.40;;;6.40;89.30;;;;;;5051773;28;20063;-79
2022/11/23 07:01:01;;;;;;;30.63;7.88;;;6.40;89.40;;;;;;5046901;28;20045;-83
2022/11/23 07:03:27;;;;;;;23.25;6.65;;;6.40;89.40;;;;;;5053258;28;20519;-80
2022/11/23 07:05:53;;;;;;;22.83;7.05;;;6.40;89.50;;;;;;5044591;28;20048;-82
2022/11/23 07:08:19;;;;;;;25.98;7.30;;;6.30;89.50;;;;;;5047629;28;20054;-78
2022/11/23 07:10:45;;;;;;;22.08;6.93;;;6.30;89.70;;;;;;5047821;28;20033;-83
2022/11/23 07:13:11;;;;;;;22.75;6.78;;;6.20;89.90;;;;;;5050091;28;20033;-82
2022/11/23 07:15:37;;;;;;;24.52;7.45;;;6.20;90.00;;;;;;5045172;28;20041;-83
2022/11/23 07:18:04;;;;;;;28.90;8.77;;;6.20;90.00;;;;;;5046904;28;20511;-82
2022/11/23 07:20:29;;;;;;;24.67;10.57;;;6.20;90.40;;;;;;5046872;28;20044;-80
2022/11/23 07:23:03;;;;;;;30.10;10.43;;;6.20;90.50;;;;;;5053589;28;20029;-81
2022/11/23 07:25:31;;;;;;;37.77;13.80;;;6.30;90.40;;;;;;5050644;28;20036;-81
2022/11/23 07:27:57;;;;;;;27.75;12.00;;;6.30;90.30;;;;;;5046057;28;20130;-81
2022/11/23 07:30:24;;;;;;;28.83;12.75;;;6.30;90.40;;;;;;5050260;28;20111;-79
2022/11/23 07:32:50;;;;;;;28.73;13.15;;;6.40;90.40;;;;;;5054977;28;20037;-82
2022/11/23 07:35:17;;;;;;;32.35;13.55;;;6.40;90.40;;;;;;5049914;28;20160;-79
2022/11/23 07:37:43;;;;;;;33.88;15.20;;;6.40;90.50;;;;;;5067454;28;20049;-81
2022/11/23 07:40:09;;;;;;;34.28;16.70;;;6.40;90.50;;;;;;5056784;28;20540;-82
2022/11/23 07:42:35;;;;;;;37.85;18.02;;;6.40;90.60;;;;;;5054196;28;20468;-82
2022/11/23 07:45:01;;;;;;;39.05;19.52;;;6.40;90.60;;;;;;5052584;28;20087;-78
2022/11/23 07:47:27;;;;;;;38.33;19.27;;;6.40;90.60;;;;;;5043449;28;20044;-81
2022/11/23 07:49:53;;;;;;;33.30;17.50;;;6.50;90.70;;;;;;5049513;28;20033;-79
2022/11/23 07:52:18;;;;;;;41.35;18.88;;;6.60;90.60;;;;;;5045592;28;20036;-79
2022/11/23 07:54:44;;;;;;;38.95;17.50;;;6.50;90.60;;;;;;5051143;28;20484;-81
2022/11/23 07:57:10;;;;;;;30.52;16.98;;;6.60;90.70;;;;;;5050871;28;20189;-82
2022/11/23 07:59:36;;;;;;;26.80;12.88;;;6.70;90.60;;;;;;5049700;28;20396;-82
2022/11/23 08:02:02;;;;;;;28.40;13.60;;;6.70;90.60;;;;;;5048348;28;20357;-79
2022/11/23 08:04:28;;;;;;;26.70;13.05;;;6.70;90.60;;;;;;5051848;28;20327;-84
2022/11/23 08:06:55;;;;;;;25.38;12.60;;;6.80;90.50;;;;;;5046962;28;20619;-84
2022/11/23 08:09:21;;;;;;;27.85;12.35;;;6.80;90.50;;;;;;5047575;28;20120;-82
2022/11/23 08:11:47;;;;;;;33.50;15.55;;;6.90;90.50;;;;;;5047135;28;20533;-82
2022/11/23 08:14:12;;;;;;;31.77;14.77;;;6.90;90.50;;;;;;5051672;28;20454;-82
2022/11/23 08:16:38;;;;;;;31.25;15.38;;;6.90;90.60;;;;;;5060217;28;20056;-76
2022/11/23 08:19:04;;;;;;;32.55;15.32;;;6.90;90.60;;;;;;5070233;28;20048;-83
2022/11/23 08:21:29;;;;;;;33.05;14.07;;;7.00;90.50;;;;;;5051606;28;20121;-78
2022/11/23 08:23:55;;;;;;;29.27;13.93;;;7.10;90.40;;;;;;5057474;28;20037;-84
2022/11/23 08:26:20;;;;;;;28.00;12.85;;;7.10;90.30;;;;;;5051704;28;20095;-86
2022/11/23 08:28:46;;;;;;;23.27;11.80;;;7.10;90.10;;;;;;5067568;28;20473;-86
2022/11/23 08:31:13;;;;;;;27.30;10.18;;;7.10;90.10;;;;;;5044197;28;20075;-79
2022/11/23 08:33:40;;;;;;;23.58;9.45;;;7.10;90.00;;;;;;5052224;28;20043;-81
2022/11/23 08:36:07;;;;;;;26.02;9.88;;;7.20;89.90;;;;;;5049414;28;20452;-83
2022/11/23 08:38:33;;;;;;;22.58;8.70;;;7.30;89.80;;;;;;5054514;28;20407;-83
2022/11/23 08:41:00;;;;;;;25.75;8.13;;;7.30;89.60;;;;;;5051168;28;20199;-84
2022/11/23 08:43:27;;;;;;;24.15;10.32;;;7.30;89.60;;;;;;5053128;28;20102;-83
2022/11/23 08:45:57;;;;;;;21.30;9.05;;;7.30;89.70;;;;;;5049640;28;20039;-78
2022/11/23 08:48:23;;;;;;;24.85;9.02;;;7.30;89.60;;;;;;5049300;28;20116;-85
2022/11/23 08:50:49;;;;;;;27.38;10.15;;;7.40;89.50;;;;;;5052541;28;20090;-84
2022/11/23 08:53:14;;;;;;;22.98;9.20;;;7.50;89.30;;;;;;5052188;28;20040;-82
2022/11/23 08:55:40;;;;;;;18.75;8.27;;;7.60;89.20;;;;;;5049297;28;20033;-82
2022/11/23 08:58:07;;;;;;;16.67;7.43;;;7.60;89.00;;;;;;5050743;28;20049;-82
2022/11/23 09:00:33;;;;;;;23.85;8.50;;;7.70;88.80;;;;;;5056437;28;20040;-87
2022/11/23 09:03:00;;;;;;;20.85;6.35;;;7.70;88.70;;;;;;5048267;28;20362;-86
2022/11/23 09:05:27;;;;;;;19.08;6.40;;;7.70;88.60;;;;;;5051869;28;20136;-86
2022/11/23 09:07:53;;;;;;;17.52;5.45;;;7.80;88.50;;;;;;5045906;28;20047;-83
2022/11/23 09:10:18;;;;;;;19.95;6.18;;;7.90;88.40;;;;;;5058475;28;20037;-83
2022/11/23 09:12:45;;;;;;;21.65;5.93;;;8.00;88.20;;;;;;5053739;28;20037;-84
2022/11/23 09:15:11;;;;;;;15.88;5.75;;;8.00;88.00;;;;;;5047966;28;20044;-82
2022/11/23 09:17:36;;;;;;;19.98;6.82;;;8.10;88.10;;;;;;5049970;28;20059;-84
2022/11/23 09:20:02;;;;;;;17.90;6.47;;;8.10;88.00;;;;;;5047319;28;20583;-83
2022/11/23 09:22:28;;;;;;;20.65;6.47;;;8.10;87.70;;;;;;5051302;28;20047;-83
2022/11/23 09:24:53;;;;;;;12.82;6.00;;;8.10;87.70;;;;;;5057156;28;20056;-83
2022/11/23 09:27:19;;;;;;;16.95;5.25;;;8.10;87.70;;;;;;5053927;28;20103;-81
2022/11/23 09:29:45;;;;;;;21.90;6.18;;;8.20;87.60;;;;;;5053734;28;20045;-80
2022/11/23 09:32:10;;;;;;;16.35;5.13;;;8.20;87.70;;;;;;5052104;28;20053;-83
2022/11/23 09:34:36;;;;;;;16.38;6.07;;;8.20;87.40;;;;;;5058803;28;20037;-83
2022/11/23 09:37:02;;;;;;;14.55;6.35;;;8.30;87.50;;;;;;5050604;28;20065;-81
2022/11/23 09:39:27;;;;;;;18.08;5.63;;;8.30;87.30;;;;;;5049707;28;20041;-82
2022/11/23 09:42:20;;;;;;;16.17;5.30;;;8.30;87.30;;;;;;5046597;28;20037;-80
2022/11/23 09:44:59;;;;;;;14.40;5.30;;;8.40;87.00;;;;;;5057328;28;20041;-83
2022/11/23 09:48:00;;;;;;;14.60;4.60;;;8.40;86.80;;;;;;5055597;28;20048;-78
2022/11/23 09:50:44;;;;;;;19.60;5.10;;;8.50;86.70;;;;;;5069137;28;20039;-83
2022/11/23 09:53:16;;;;;;;16.00;4.20;;;8.60;86.50;;;;;;5045604;28;20392;-82
2022/11/23 09:55:46;;;;;;;15.05;5.22;;;8.60;86.30;;;;;;5051594;28;20044;-78
2022/11/23 09:58:20;;;;;;;13.40;4.78;;;8.70;86.20;;;;;;5053089;28;20190;-81
2022/11/23 10:01:03;;;;;;;13.88;4.45;;;8.70;86.00;;;;;;5044591;28;20390;-80
2022/11/23 10:03:37;;;;;;;13.98;4.80;;;8.80;86.10;;;;;;5057933;28;20399;-82
2022/11/23 10:06:18;;;;;;;12.32;4.50;;;9.00;86.10;;;;;;5048482;28;20535;-82
2022/11/23 10:09:11;;;;;;;16.55;5.55;;;9.10;85.50;;;;;;5052024;28;20047;-84
2022/11/23 10:11:49;;;;;;;18.50;6.03;;;9.10;85.20;;;;;;5052163;28;20048;-79
2022/11/23 10:14:32;;;;;;;19.00;4.78;;;9.10;84.90;;;;;;5053614;28;20060;-83
2022/11/23 10:17:19;;;;;;;12.98;4.60;;;8.90;85.20;;;;;;5050593;28;20048;-83
2022/11/23 10:20:14;;;;;;;12.73;4.95;;;8.90;85.40;;;;;;5050106;28;20052;-84
2022/11/23 10:23:06;;;;;;;15.05;4.80;;;8.90;85.50;;;;;;5045663;28;20044;-84
2022/11/23 10:25:41;;;;;;;13.65;4.55;;;9.00;85.30;;;;;;5049674;28;20437;-83
2022/11/23 10:28:17;;;;;;;14.73;4.35;;;8.90;85.10;;;;;;5074269;28;20454;-83
2022/11/23 10:30:55;;;;;;;13.25;4.45;;;8.90;85.00;;;;;;5049952;28;20060;-81
2022/11/23 10:33:41;;;;;;;16.90;5.35;;;9.00;85.10;;;;;;5064767;28;20041;-80
2022/11/23 10:36:10;;;;;;;14.88;5.22;;;9.10;84.90;;;;;;5070443;28;20052;-82
2022/11/23 10:38:35;;;;;;;13.25;4.72;;;9.30;84.10;;;;;;5059319;28;20144;-81
2022/11/23 10:41:06;;;;;;;13.93;4.45;;;9.20;84.00;;;;;;5064195;28;20532;-80
2022/11/23 10:43:38;;;;;;;14.98;4.55;;;9.40;84.00;;;;;;5059779;28;20056;-83
2022/11/23 10:46:36;;;;;;;16.38;4.60;;;9.50;83.60;;;;;;5051802;28;20148;-85
2022/11/23 10:49:09;;;;;;;12.57;4.40;;;9.40;83.60;;;;;;5047451;28;20045;-81
2022/11/23 10:51:36;;;;;;;13.63;4.05;;;9.30;83.90;;;;;;5053721;28;20074;-82
2022/11/23 10:54:05;;;;;;;10.52;4.35;;;9.20;84.10;;;;;;5049470;28;20037;-81
2022/11/23 10:56:32;;;;;;;13.25;4.78;;;9.20;84.20;;;;;;5069343;28;20080;-83
2022/11/23 10:58:58;;;;;;;13.73;4.63;;;9.20;84.50;;;;;;5050022;28;20507;-83
2022/11/23 11:01:26;;;;;;;16.73;5.03;;;9.20;84.30;;;;;;5049370;28;20032;-82
2022/11/23 11:03:54;;;;;;;12.43;3.70;;;9.10;84.30;;;;;;5053033;28;20485;-80
2022/11/23 11:06:23;;;;;;;13.07;4.47;;;9.10;84.40;;;;;;5050558;28;20033;-82
2022/11/23 11:08:57;;;;;;;11.45;4.05;;;9.10;84.90;;;;;;5046115;28;20071;-83
2022/11/23 11:11:49;;;;;;;12.57;4.00;;;9.00;85.30;;;;;;5052805;28;20554;-84
2022/11/23 11:14:23;;;;;;;12.40;4.15;;;8.90;85.90;;;;;;5043675;28;20029;-79
2022/11/23 11:16:54;;;;;;;13.32;4.25;;;8.90;86.40;;;;;;5055427;28;20055;-78
2022/11/23 11:19:29;;;;;;;14.82;3.92;;;8.80;87.10;;;;;;5069415;28;20052;-77
2022/11/23 11:21:56;;;;;;;15.23;4.25;;;8.80;87.60;;;;;;5047209;28;20033;-88
2022/11/23 11:24:31;;;;;;;14.40;5.05;;;8.70;88.20;;;;;;5048157;28;20033;-83
2022/11/23 11:27:00;;;;;;;17.20;4.38;;;8.70;88.60;;;;;;5051274;28;20049;-82
2022/11/23 11:29:54;;;;;;;15.73;4.07;;;8.60;89.00;;;;;;5053881;28;20387;-83
2022/11/23 11:32:22;;;;;;;13.10;4.18;;;8.60;89.50;;;;;;5042910;28;20048;-84
2022/11/23 11:34:52;;;;;;;12.38;5.10;;;8.60;89.90;;;;;;5058849;28;20032;-80
2022/11/23 11:37:35;;;;;;;13.45;4.88;;;8.60;90.20;;;;;;5047304;28;20033;-82
2022/11/23 11:40:08;;;;;;;13.68;4.97;;;8.60;90.50;;;;;;5058846;28;20033;-87
2022/11/23 11:42:45;;;;;;;14.27;4.55;;;8.60;90.70;;;;;;5044676;28;20111;-84
2022/11/23 11:45:35;;;;;;;12.68;4.30;;;8.50;91.10;;;;;;5054793;28;20033;-83
2022/11/23 11:48:19;;;;;;;13.65;4.07;;;8.50;91.20;;;;;;5049388;28;20036;-86
2022/11/23 11:50:59;;;;;;;14.35;4.82;;;8.60;91.30;;;;;;5066596;28;20031;-87
2022/11/23 11:53:36;;;;;;;12.32;4.50;;;8.60;91.50;;;;;;5046798;28;20037;-85
2022/11/23 11:56:22;;;;;;;13.40;3.88;;;8.60;91.60;;;;;;5053500;28;20155;-81
2022/11/23 11:58:56;;;;;;;13.70;4.60;;;8.60;91.80;;;;;;5055680;28;20048;-84
2022/11/23 12:01:33;;;;;;;15.00;5.68;;;8.50;91.90;;;;;;5051101;28;20064;-84
2022/11/23 12:04:10;;;;;;;16.55;5.50;;;8.50;92.00;;;;;;5043930;28;20372;-84
2022/11/23 12:06:45;;;;;;;14.55;5.35;;;8.60;92.10;;;;;;5046888;28;20036;-80
2022/11/23 12:09:25;;;;;;;10.30;5.10;;;8.50;92.30;;;;;;5047221;28;20040;-84
2022/11/23 12:11:51;;;;;;;14.38;4.90;;;8.50;92.40;;;;;;5051156;28;20053;-85
2022/11/23 12:14:17;;;;;;;13.45;4.57;;;8.60;92.40;;;;;;5020451;28;20840;-85
2022/11/23 12:17:06;;;;;;;13.25;4.90;;;8.60;92.40;;;;;;5028945;28;20026;-84
2022/11/23 12:19:47;;;;;;;13.00;3.92;;;8.60;92.50;;;;;;5025207;28;20041;-80
2022/11/23 12:22:21;;;;;;;12.50;4.10;;;8.60;92.50;;;;;;5027293;28;20038;-82
2022/11/23 12:25:19;;;;;;;7.55;3.75;;;8.60;92.30;;;;;;5025113;28;20104;-80
2022/11/23 12:28:15;;;;;;;12.25;4.50;;;8.60;92.30;;;;;;5024688;28;20030;-85
2022/11/23 12:30:46;;;;;;;6.95;3.22;;;8.70;92.10;;;;;;5038481;28;20060;-83
2022/11/23 12:33:28;;;;;;;8.00;3.22;;;8.60;92.10;;;;;;5034241;28;20478;-83
2022/11/23 12:36:12;;;;;;;10.35;4.00;;;8.60;91.90;;;;;;5026625;28;20045;-83
2022/11/23 12:38:49;;;;;;;12.38;4.15;;;8.60;91.90;;;;;;5025380;28;21157;-81
2022/11/23 12:41:43;;;;;;;10.98;4.35;;;8.60;91.90;;;;;;5030205;28;20050;-84
2022/11/23 12:44:33;;;;;;;21.83;10.55;;;8.70;91.90;;;;;;5025454;28;20065;-85
2022/11/23 12:47:23;;;;;;;14.98;5.60;;;8.60;91.80;;;;;;5029490;28;20049;-81
2022/11/23 12:50:01;;;;;;;10.82;5.03;;;8.60;91.90;;;;;;5044695;28;20110;-84
2022/11/23 12:52:53;;;;;;;11.38;4.53;;;8.60;91.90;;;;;;5031684;28;20350;-86
2022/11/23 12:55:33;;;;;;;11.68;4.85;;;8.60;92.00;;;;;;5024575;28;20061;-79
2022/11/23 12:58:16;;;;;;;8.77;3.97;;;8.60;92.00;;;;;;5023584;28;20034;-85